Time;durP1;ratioP1;P1;durP2;ratioP2;P2;SDS_P1;SDS_P2;PMS_P1;PMS_P2;Temp;Humidity;BMP_temperature;BMP_pressure;BME280_temperature;BME280_humidity;BME280_pressure;Samples;Min_cycle;Max_cycle;Signal;HPM_P1;HPM_P2
2023/08/13 00:00:06;;;;;;;4.63;3.30;;;;;;;;;;5052909;28;20053;-86
2023/08/13 00:02:32;;;;;;;7.55;3.40;;;;;;;;;;5051758;28;20033;-86
2023/08/13 00:04:57;;;;;;;7.20;3.20;;;;;;;;;;5052737;28;20039;-85
2023/08/13 00:07:23;;;;;;;5.68;3.25;;;;;;;;;;5052444;28;20038;-86
2023/08/13 00:09:49;;;;;;;8.13;3.20;;;;;;;;;;5052822;28;20486;-86
2023/08/13 00:12:14;;;;;;;4.95;3.33;;;;;;;;;;5052516;28;20427;-86
2023/08/13 00:14:40;;;;;;;6.78;3.20;;;;;;;;;;5052923;28;20033;-86
2023/08/13 00:17:05;;;;;;;8.68;3.50;;;;;;;;;;5052253;28;20124;-86
2023/08/13 00:19:30;;;;;;;3.83;3.13;;;;;;;;;;5052668;28;20021;-86
2023/08/13 00:21:56;;;;;;;6.35;3.67;;;;;;;;;;5051049;28;20387;-86
2023/08/13 00:24:21;;;;;;;5.07;3.15;;;;;;;;;;5053249;28;20021;-86
2023/08/13 00:26:47;;;;;;;6.63;3.22;;;;;;;;;;5051259;28;20091;-86
2023/08/13 00:29:12;;;;;;;8.50;2.95;;;;;;;;;;5051132;28;20596;-86
2023/08/13 00:31:38;;;;;;;4.07;2.95;;;;;;;;;;5052059;28;20115;-86
2023/08/13 00:34:03;;;;;;;4.78;3.40;;;;;;;;;;5050913;28;20484;-85
2023/08/13 00:36:29;;;;;;;6.57;3.28;;;;;;;;;;5051179;28;20175;-86
2023/08/13 00:38:54;;;;;;;4.40;3.13;;;;;;;;;;5055305;28;20033;-85
2023/08/13 00:41:20;;;;;;;4.07;3.15;;;;;;;;;;5050711;28;20024;-86
2023/08/13 00:43:45;;;;;;;5.10;3.13;;;;;;;;;;5052078;28;20111;-86
2023/08/13 00:46:11;;;;;;;5.32;3.20;;;;;;;;;;5050858;28;20029;-86
2023/08/13 00:48:39;;;;;;;5.32;2.95;;;;;;;;;;5050344;28;20033;-86
2023/08/13 00:51:06;;;;;;;6.00;3.08;;;;;;;;;;5035930;28;20112;-86
2023/08/13 00:53:45;;;;;;;5.68;3.30;;;;;;;;;;5048796;28;20506;-86
2023/08/13 00:56:13;;;;;;;6.00;3.15;;;;;;;;;;5050547;28;20044;-85
2023/08/13 00:58:40;;;;;;;5.18;3.35;;;;;;;;;;5051499;28;20037;-86
2023/08/13 01:01:06;;;;;;;6.65;3.40;;;;;;;;;;5050150;28;20115;-86
2023/08/13 01:03:33;;;;;;;10.20;3.60;;;;;;;;;;5050366;28;20465;-86
2023/08/13 01:06:13;;;;;;;6.18;3.13;;;;;;;;;;5048595;28;20028;-86
2023/08/13 01:09:07;;;;;;;7.10;2.90;;;;;;;;;;5051433;28;20029;-86
2023/08/13 01:11:45;;;;;;;5.80;2.95;;;;;;;;;;5065450;28;20507;-86
2023/08/13 01:14:26;;;;;;;4.82;3.13;;;;;;;;;;5049521;28;20036;-86
2023/08/13 01:16:54;;;;;;;6.93;3.17;;;;;;;;;;5051288;28;20472;-85
2023/08/13 01:19:19;;;;;;;5.55;3.25;;;;;;;;;;5050200;28;20028;-86
2023/08/13 01:21:45;;;;;;;5.50;3.05;;;;;;;;;;5051438;28;20380;-86
2023/08/13 01:24:11;;;;;;;5.93;3.25;;;;;;;;;;5051905;28;20057;-86
2023/08/13 01:26:59;;;;;;;5.00;3.20;;;;;;;;;;5050089;28;20059;-86
2023/08/13 01:29:33;;;;;;;4.90;3.10;;;;;;;;;;5050464;28;20032;-86
2023/08/13 01:32:02;;;;;;;4.88;2.72;;;;;;;;;;5049303;28;20033;-85
2023/08/13 01:34:28;;;;;;;5.50;3.20;;;;;;;;;;5051471;28;20083;-86
2023/08/13 01:36:54;;;;;;;5.57;2.92;;;;;;;;;;5050981;28;20492;-85
2023/08/13 01:39:20;;;;;;;5.88;2.90;;;;;;;;;;5051233;28;20553;-86
2023/08/13 01:41:56;;;;;;;3.92;2.80;;;;;;;;;;5049865;28;20041;-86
2023/08/13 01:44:21;;;;;;;6.20;2.95;;;;;;;;;;5064265;28;20025;-85
2023/08/13 01:46:48;;;;;;;5.03;2.90;;;;;;;;;;5050910;28;20400;-85
2023/08/13 01:49:13;;;;;;;5.53;2.75;;;;;;;;;;5053979;28;20077;-86
2023/08/13 01:51:39;;;;;;;6.40;3.03;;;;;;;;;;5055102;28;20075;-85
2023/08/13 01:54:04;;;;;;;5.28;3.00;;;;;;;;;;5040817;28;20057;-86
2023/08/13 01:56:30;;;;;;;3.75;2.90;;;;;;;;;;5054447;28;20534;-86
2023/08/13 01:58:55;;;;;;;5.25;2.88;;;;;;;;;;5050877;28;20116;-85
2023/08/13 02:01:21;;;;;;;5.65;3.08;;;;;;;;;;5051310;28;20079;-85
2023/08/13 02:03:46;;;;;;;9.15;3.28;;;;;;;;;;5055031;28;20021;-85
2023/08/13 02:06:12;;;;;;;4.05;2.88;;;;;;;;;;5053673;28;20199;-86
2023/08/13 02:08:37;;;;;;;5.85;3.20;;;;;;;;;;5054646;28;20391;-86
2023/08/13 02:11:03;;;;;;;5.07;3.25;;;;;;;;;;5053491;28;20372;-85
2023/08/13 02:13:28;;;;;;;6.82;3.30;;;;;;;;;;5053500;28;20048;-85
2023/08/13 02:15:54;;;;;;;4.88;3.10;;;;;;;;;;5054796;28;20087;-86
2023/08/13 02:18:20;;;;;;;4.93;3.20;;;;;;;;;;5035677;28;20098;-86
2023/08/13 02:20:47;;;;;;;6.95;3.20;;;;;;;;;;5053405;28;20087;-86
2023/08/13 02:23:13;;;;;;;5.10;3.22;;;;;;;;;;5053344;28;20072;-86
2023/08/13 02:25:38;;;;;;;8.02;4.65;;;;;;;;;;5054433;28;20017;-86
2023/08/13 02:28:04;;;;;;;6.55;4.15;;;;;;;;;;5053139;28;20122;-86
2023/08/13 02:30:29;;;;;;;4.40;3.38;;;;;;;;;;5058845;28;20175;-86
2023/08/13 02:32:55;;;;;;;6.03;3.60;;;;;;;;;;5052962;28;20033;-86
2023/08/13 02:35:22;;;;;;;5.00;3.20;;;;;;;;;;5053180;28;20032;-86
2023/08/13 02:37:47;;;;;;;7.38;3.38;;;;;;;;;;5052798;28;20392;-86
2023/08/13 02:40:13;;;;;;;7.10;3.45;;;;;;;;;;5052998;28;20090;-86
2023/08/13 02:42:38;;;;;;;7.68;3.47;;;;;;;;;;5054156;28;20029;-85
2023/08/13 02:45:04;;;;;;;5.07;3.72;;;;;;;;;;5052972;28;20021;-86
2023/08/13 02:47:30;;;;;;;8.00;3.47;;;;;;;;;;5053950;28;20078;-85
2023/08/13 02:49:55;;;;;;;7.75;3.55;;;;;;;;;;5052783;28;20100;-85
2023/08/13 02:52:21;;;;;;;5.70;3.75;;;;;;;;;;5036345;28;20388;-85
2023/08/13 02:54:47;;;;;;;6.03;3.40;;;;;;;;;;5054002;28;20033;-86
2023/08/13 02:57:12;;;;;;;5.20;3.28;;;;;;;;;;5052524;28;20056;-86
2023/08/13 02:59:38;;;;;;;5.88;3.40;;;;;;;;;;5051031;28;20111;-85
2023/08/13 03:02:04;;;;;;;7.53;3.50;;;;;;;;;;5052516;28;20029;-85
2023/08/13 03:04:29;;;;;;;6.53;3.60;;;;;;;;;;5052671;28;20114;-86
2023/08/13 03:06:55;;;;;;;7.28;3.42;;;;;;;;;;5051370;28;20331;-85
2023/08/13 03:09:22;;;;;;;4.45;3.15;;;;;;;;;;5054121;28;20439;-85
2023/08/13 03:11:48;;;;;;;5.30;3.10;;;;;;;;;;5052423;28;20491;-85
2023/08/13 03:14:15;;;;;;;4.90;3.20;;;;;;;;;;5053568;28;20040;-86
2023/08/13 03:16:41;;;;;;;5.85;3.38;;;;;;;;;;5051907;28;20398;-86
2023/08/13 03:19:06;;;;;;;7.50;4.25;;;;;;;;;;5059390;28;20119;-85
2023/08/13 03:21:32;;;;;;;6.50;4.13;;;;;;;;;;5051245;28;20032;-86
2023/08/13 03:23:57;;;;;;;6.30;3.70;;;;;;;;;;5053456;28;20480;-85
2023/08/13 03:26:23;;;;;;;8.20;3.75;;;;;;;;;;5052074;28;20116;-85
2023/08/13 03:28:51;;;;;;;6.15;3.85;;;;;;;;;;5052448;28;20493;-85
2023/08/13 03:31:19;;;;;;;7.97;3.55;;;;;;;;;;5051977;28;20477;-85
2023/08/13 03:33:56;;;;;;;5.13;3.10;;;;;;;;;;5051977;28;20121;-85
2023/08/13 03:36:23;;;;;;;5.80;3.45;;;;;;;;;;5052014;28;20025;-86
2023/08/13 03:38:48;;;;;;;6.15;3.30;;;;;;;;;;5051472;28;20055;-85
2023/08/13 03:41:14;;;;;;;4.28;3.30;;;;;;;;;;5054470;28;20078;-85
2023/08/13 03:43:40;;;;;;;5.38;3.13;;;;;;;;;;5063325;28;20045;-85
2023/08/13 03:46:05;;;;;;;5.68;2.67;;;;;;;;;;5052175;28;20078;-85
2023/08/13 03:48:31;;;;;;;4.72;2.80;;;;;;;;;;5035084;28;20079;-86
2023/08/13 03:50:56;;;;;;;7.13;3.42;;;;;;;;;;5051656;28;20483;-85
2023/08/13 03:53:24;;;;;;;6.20;3.55;;;;;;;;;;5051665;28;20041;-85
2023/08/13 03:55:51;;;;;;;6.45;3.50;;;;;;;;;;5049766;28;20399;-85
2023/08/13 03:58:17;;;;;;;6.45;3.70;;;;;;;;;;5052610;28;20111;-85
2023/08/13 04:00:42;;;;;;;5.55;3.55;;;;;;;;;;5052368;28;20075;-86
2023/08/13 04:03:09;;;;;;;5.88;3.22;;;;;;;;;;5053599;28;20025;-85
2023/08/13 04:05:35;;;;;;;9.40;3.20;;;;;;;;;;5051385;28;20032;-85
2023/08/13 04:08:01;;;;;;;9.65;3.78;;;;;;;;;;5051191;28;20094;-85
2023/08/13 04:10:27;;;;;;;5.80;3.60;;;;;;;;;;5055699;28;20044;-86
2023/08/13 04:12:55;;;;;;;8.05;3.55;;;;;;;;;;5041113;28;20028;-87
2023/08/13 04:15:22;;;;;;;6.45;3.40;;;;;;;;;;5071226;28;20049;-85
2023/08/13 04:17:47;;;;;;;6.53;3.08;;;;;;;;;;5053054;28;20096;-86
2023/08/13 04:20:14;;;;;;;9.55;3.28;;;;;;;;;;5051205;28;20068;-86
2023/08/13 04:22:39;;;;;;;7.18;2.95;;;;;;;;;;5055731;28;20087;-86
2023/08/13 04:25:07;;;;;;;3.97;3.00;;;;;;;;;;5052346;28;20734;-86
2023/08/13 04:27:33;;;;;;;7.18;3.00;;;;;;;;;;5049897;28;20048;-85
2023/08/13 04:29:58;;;;;;;7.57;3.40;;;;;;;;;;5053599;28;20112;-85
2023/08/13 04:32:24;;;;;;;7.30;3.90;;;;;;;;;;5064269;28;20055;-85
2023/08/13 04:34:51;;;;;;;5.18;3.30;;;;;;;;;;5050226;28;20489;-86
2023/08/13 04:37:17;;;;;;;5.90;2.90;;;;;;;;;;5048237;28;20055;-85
2023/08/13 04:39:43;;;;;;;8.65;3.20;;;;;;;;;;5054217;28;20049;-86
2023/08/13 04:42:09;;;;;;;5.72;2.80;;;;;;;;;;5049770;28;20040;-86
2023/08/13 04:44:35;;;;;;;3.25;2.45;;;;;;;;;;5049711;28;20021;-85
2023/08/13 04:47:01;;;;;;;5.22;2.53;;;;;;;;;;5049906;28;20029;-86
2023/08/13 04:49:27;;;;;;;5.03;2.75;;;;;;;;;;5049641;28;20021;-85
2023/08/13 04:51:52;;;;;;;5.15;2.70;;;;;;;;;;5049515;28;20252;-85
2023/08/13 04:54:19;;;;;;;5.85;2.90;;;;;;;;;;5049427;28;20118;-85
2023/08/13 04:56:44;;;;;;;4.32;2.40;;;;;;;;;;5049288;28;20503;-85
2023/08/13 04:59:11;;;;;;;7.07;2.63;;;;;;;;;;5049320;28;20062;-85
2023/08/13 05:01:37;;;;;;;4.30;2.70;;;;;;;;;;5052826;28;20029;-85
2023/08/13 05:04:03;;;;;;;5.63;2.60;;;;;;;;;;5049433;28;20086;-85
2023/08/13 05:06:32;;;;;;;5.28;2.70;;;;;;;;;;5037814;28;20057;-85
2023/08/13 05:08:59;;;;;;;6.00;3.00;;;;;;;;;;5048897;28;20107;-85
2023/08/13 05:11:25;;;;;;;3.67;2.63;;;;;;;;;;5049185;28;20102;-85
2023/08/13 05:13:51;;;;;;;4.75;2.70;;;;;;;;;;5049133;28;20381;-85
2023/08/13 05:16:18;;;;;;;4.00;2.72;;;;;;;;;;5049447;28;20087;-85
2023/08/13 05:18:44;;;;;;;4.45;2.97;;;;;;;;;;5049252;28;20028;-86
2023/08/13 05:21:10;;;;;;;6.28;3.03;;;;;;;;;;5049118;28;20033;-85
2023/08/13 05:23:35;;;;;;;4.20;2.80;;;;;;;;;;5064549;28;20079;-86
2023/08/13 05:26:02;;;;;;;4.47;2.63;;;;;;;;;;5049323;28;20044;-86
2023/08/13 05:28:28;;;;;;;5.03;2.50;;;;;;;;;;5048968;28;20024;-85
2023/08/13 05:30:54;;;;;;;6.78;2.85;;;;;;;;;;5048962;28;20032;-85
2023/08/13 05:33:22;;;;;;;5.05;2.67;;;;;;;;;;5046718;28;20029;-85
2023/08/13 05:35:48;;;;;;;4.95;3.08;;;;;;;;;;5049432;28;20037;-85
2023/08/13 05:38:13;;;;;;;6.85;2.97;;;;;;;;;;5048771;28;20037;-86
2023/08/13 05:40:39;;;;;;;4.03;2.70;;;;;;;;;;5048879;28;20112;-85
2023/08/13 05:43:04;;;;;;;7.25;2.88;;;;;;;;;;5050838;28;20493;-85
2023/08/13 05:45:30;;;;;;;6.65;2.80;;;;;;;;;;5049082;28;20024;-85
2023/08/13 05:47:56;;;;;;;5.07;2.70;;;;;;;;;;5055003;28;20040;-86
2023/08/13 05:50:21;;;;;;;4.60;2.88;;;;;;;;;;5048861;28;20112;-85
2023/08/13 05:52:47;;;;;;;3.83;2.78;;;;;;;;;;5049303;28;20120;-86
2023/08/13 05:55:13;;;;;;;3.83;2.72;;;;;;;;;;5050455;28;20500;-86
2023/08/13 05:57:38;;;;;;;5.32;2.83;;;;;;;;;;5049860;28;20044;-85
2023/08/13 06:00:10;;;;;;;3.83;2.78;;;;;;;;;;5049835;28;20037;-86
2023/08/13 06:02:38;;;;;;;4.10;3.10;;;;;;;;;;5047586;28;20029;-85
2023/08/13 06:05:06;;;;;;;4.47;2.80;;;;;;;;;;5050012;28;20036;-86
2023/08/13 06:07:32;;;;;;;6.20;2.85;;;;;;;;;;5049961;28;20029;-86
2023/08/13 06:09:58;;;;;;;7.28;3.00;;;;;;;;;;5050420;28;20025;-86
2023/08/13 06:12:23;;;;;;;6.05;2.67;;;;;;;;;;5062065;28;20045;-86
2023/08/13 06:14:48;;;;;;;3.95;2.97;;;;;;;;;;5049899;28;20032;-86
2023/08/13 06:17:14;;;;;;;5.03;2.70;;;;;;;;;;5049770;28;20722;-86
2023/08/13 06:19:39;;;;;;;7.70;2.88;;;;;;;;;;5050421;28;20033;-84
2023/08/13 06:22:05;;;;;;;3.20;2.63;;;;;;;;;;5050092;28;20033;-86
2023/08/13 06:24:30;;;;;;;4.53;2.75;;;;;;;;;;5049972;28;20104;-86
2023/08/13 06:26:56;;;;;;;6.72;3.00;;;;;;;;;;5049873;28;20498;-85
2023/08/13 06:29:21;;;;;;;5.72;2.97;;;;;;;;;;5044286;28;21008;-85
2023/08/13 06:31:47;;;;;;;4.85;2.95;;;;;;;;;;5049914;28;20091;-86
2023/08/13 06:34:14;;;;;;;8.23;3.30;;;;;;;;;;5050905;28;20037;-85
2023/08/13 06:36:40;;;;;;;8.75;3.17;;;;;;;;;;5053328;28;20025;-86
2023/08/13 06:39:05;;;;;;;4.85;2.90;;;;;;;;;;5053606;28;20039;-86
2023/08/13 06:41:31;;;;;;;4.85;3.22;;;;;;;;;;5053396;28;20079;-86
2023/08/13 06:44:01;;;;;;;4.93;3.30;;;;;;;;;;5055539;28;20025;-86
2023/08/13 06:46:26;;;;;;;5.15;2.88;;;;;;;;;;5053530;28;20040;-86
2023/08/13 06:48:52;;;;;;;4.50;2.53;;;;;;;;;;5053908;28;20512;-86
2023/08/13 06:51:17;;;;;;;4.43;2.80;;;;;;;;;;5055407;28;20032;-86
2023/08/13 06:53:43;;;;;;;6.88;2.63;;;;;;;;;;5053271;28;20078;-86
2023/08/13 06:56:08;;;;;;;6.00;3.20;;;;;;;;;;5053549;28;20115;-86
2023/08/13 06:58:34;;;;;;;4.53;3.30;;;;;;;;;;5053174;28;20041;-85
2023/08/13 07:00:59;;;;;;;5.80;3.28;;;;;;;;;;5053086;28;20040;-84
2023/08/13 07:03:25;;;;;;;6.82;3.10;;;;;;;;;;5053964;28;20464;-85
2023/08/13 07:05:51;;;;;;;7.30;3.08;;;;;;;;;;5049985;28;20044;-83
2023/08/13 07:08:17;;;;;;;5.53;3.15;;;;;;;;;;5051452;28;20025;-84
2023/08/13 07:10:42;;;;;;;7.85;3.40;;;;;;;;;;5052885;28;20064;-84
2023/08/13 07:13:08;;;;;;;5.90;3.30;;;;;;;;;;5052583;28;20443;-83
2023/08/13 07:15:33;;;;;;;7.03;2.95;;;;;;;;;;5053093;28;20108;-84
2023/08/13 07:17:59;;;;;;;4.60;3.20;;;;;;;;;;5052532;28;20032;-84
2023/08/13 07:20:24;;;;;;;5.00;3.20;;;;;;;;;;5052460;28;20472;-82
2023/08/13 07:22:50;;;;;;;4.63;3.10;;;;;;;;;;5053003;28;20033;-84
2023/08/13 07:25:16;;;;;;;5.72;3.40;;;;;;;;;;5053056;28;20495;-84
2023/08/13 07:27:43;;;;;;;5.35;3.30;;;;;;;;;;5050934;28;20059;-84
2023/08/13 07:30:10;;;;;;;4.97;3.10;;;;;;;;;;5052702;28;20484;-85
2023/08/13 07:32:37;;;;;;;5.35;3.15;;;;;;;;;;5052364;28;20476;-85
2023/08/13 07:35:03;;;;;;;4.65;3.08;;;;;;;;;;5047324;28;20087;-83
2023/08/13 07:37:28;;;;;;;4.50;3.28;;;;;;;;;;5051357;28;20033;-85
2023/08/13 07:39:55;;;;;;;5.40;3.40;;;;;;;;;;5051377;28;20064;-85
2023/08/13 07:42:20;;;;;;;4.50;3.00;;;;;;;;;;5052340;28;20028;-84
2023/08/13 07:44:47;;;;;;;6.20;2.95;;;;;;;;;;5051642;28;20071;-85
2023/08/13 07:47:13;;;;;;;4.93;3.22;;;;;;;;;;5052169;28;20029;-85
2023/08/13 07:49:39;;;;;;;4.00;2.90;;;;;;;;;;5055411;28;20044;-85
2023/08/13 07:52:05;;;;;;;5.38;3.42;;;;;;;;;;5052482;28;20028;-84
2023/08/13 07:54:30;;;;;;;6.93;3.28;;;;;;;;;;5052314;28;20025;-85
2023/08/13 07:56:56;;;;;;;3.53;2.95;;;;;;;;;;5051861;28;20033;-85
2023/08/13 07:59:21;;;;;;;5.65;3.22;;;;;;;;;;5052343;28;20032;-85
2023/08/13 08:01:47;;;;;;;6.03;3.15;;;;;;;;;;5035417;28;20125;-85
2023/08/13 08:04:13;;;;;;;6.40;3.13;;;;;;;;;;5052722;28;20112;-87
2023/08/13 08:06:39;;;;;;;5.72;3.03;;;;;;;;;;5053943;28;20025;-86
2023/08/13 08:09:07;;;;;;;5.65;3.10;;;;;;;;;;5052537;28;20472;-86
2023/08/13 08:11:33;;;;;;;5.93;3.00;;;;;;;;;;5052724;28;20040;-85
2023/08/13 08:13:59;;;;;;;4.88;3.22;;;;;;;;;;5053209;28;20086;-85
2023/08/13 08:16:25;;;;;;;6.95;3.28;;;;;;;;;;5052791;28;20025;-85
2023/08/13 08:18:50;;;;;;;5.90;3.20;;;;;;;;;;5052925;28;20496;-87
2023/08/13 08:21:15;;;;;;;7.28;3.30;;;;;;;;;;5049915;28;20033;-87
2023/08/13 08:23:41;;;;;;;8.43;3.20;;;;;;;;;;5058361;28;20480;-87
2023/08/13 08:26:07;;;;;;;4.47;3.10;;;;;;;;;;5051313;28;20431;-87
2023/08/13 08:28:32;;;;;;;4.78;3.20;;;;;;;;;;5051378;28;20044;-86
2023/08/13 08:30:58;;;;;;;5.53;2.90;;;;;;;;;;5051340;28;20051;-86
2023/08/13 08:33:23;;;;;;;8.48;3.38;;;;;;;;;;5051459;28;20589;-87
2023/08/13 08:35:49;;;;;;;6.30;3.20;;;;;;;;;;5051449;28;20510;-87
2023/08/13 08:38:15;;;;;;;9.35;3.33;;;;;;;;;;5050937;28;20037;-87
2023/08/13 08:40:46;;;;;;;5.78;2.97;;;;;;;;;;5051357;28;20082;-87
2023/08/13 08:43:13;;;;;;;5.63;3.03;;;;;;;;;;5049955;28;20104;-87
2023/08/13 08:45:39;;;;;;;7.00;3.17;;;;;;;;;;5050021;28;20033;-87
2023/08/13 08:48:06;;;;;;;6.38;3.13;;;;;;;;;;5042448;28;20033;-87
2023/08/13 08:50:34;;;;;;;5.53;3.20;;;;;;;;;;5050967;28;20086;-87
2023/08/13 08:53:00;;;;;;;6.20;3.15;;;;;;;;;;5051644;28;20089;-87
2023/08/13 08:55:26;;;;;;;5.18;3.40;;;;;;;;;;5051049;28;20033;-86
2023/08/13 08:57:54;;;;;;;5.50;3.05;;;;;;;;;;5050537;28;20108;-87
2023/08/13 09:00:19;;;;;;;7.35;3.20;;;;;;;;;;5050922;28;20029;-87
2023/08/13 09:02:45;;;;;;;4.75;2.75;;;;;;;;;;5049286;28;20059;-87
2023/08/13 09:05:11;;;;;;;5.80;3.00;;;;;;;;;;5049359;28;20032;-87
2023/08/13 09:07:42;;;;;;;8.27;3.40;;;;;;;;;;5051893;28;20037;-86
2023/08/13 09:10:08;;;;;;;5.97;2.75;;;;;;;;;;5050809;28;20029;-86
2023/08/13 09:12:36;;;;;;;4.07;2.90;;;;;;;;;;5050557;28;20530;-87
2023/08/13 09:15:06;;;;;;;3.78;2.80;;;;;;;;;;5050492;28;20033;-86
2023/08/13 09:17:32;;;;;;;8.75;2.90;;;;;;;;;;5050669;28;20472;-87
2023/08/13 09:19:57;;;;;;;5.85;3.03;;;;;;;;;;5062123;28;20538;-87
2023/08/13 09:22:23;;;;;;;5.18;3.08;;;;;;;;;;5050187;28;20032;-87
2023/08/13 09:24:49;;;;;;;5.35;3.05;;;;;;;;;;5051289;28;20021;-87
2023/08/13 09:27:14;;;;;;;6.47;3.03;;;;;;;;;;5048939;28;20412;-87
2023/08/13 09:29:41;;;;;;;5.32;2.90;;;;;;;;;;5050620;28;20124;-87
2023/08/13 09:32:07;;;;;;;4.68;3.00;;;;;;;;;;5050297;28;20025;-87
2023/08/13 09:34:35;;;;;;;4.50;2.75;;;;;;;;;;5050426;28;20033;-87
2023/08/13 09:37:01;;;;;;;3.63;2.67;;;;;;;;;;5050458;28;20115;-87
2023/08/13 09:39:28;;;;;;;6.05;2.97;;;;;;;;;;5049735;28;20460;-88
2023/08/13 09:41:55;;;;;;;4.85;2.70;;;;;;;;;;5050272;28;20033;-88
2023/08/13 09:44:24;;;;;;;5.50;3.38;;;;;;;;;;5050355;28;20028;-87
2023/08/13 09:47:03;;;;;;;7.00;3.13;;;;;;;;;;5048947;28;20115;-87
2023/08/13 09:49:32;;;;;;;6.78;3.30;;;;;;;;;;5050678;28;20036;-87
2023/08/13 09:52:09;;;;;;;4.00;2.60;;;;;;;;;;5049995;28;20589;-87
2023/08/13 09:54:50;;;;;;;8.20;3.15;;;;;;;;;;5065222;28;20068;-88
2023/08/13 09:57:17;;;;;;;3.70;2.72;;;;;;;;;;5050115;28;20044;-87
2023/08/13 09:59:43;;;;;;;6.57;3.00;;;;;;;;;;5050332;28;20749;-87
2023/08/13 10:02:11;;;;;;;5.28;3.05;;;;;;;;;;5049049;28;20082;-85
2023/08/13 10:04:40;;;;;;;6.45;3.20;;;;;;;;;;5050529;28;20037;-85
2023/08/13 10:07:06;;;;;;;7.40;3.17;;;;;;;;;;5050560;28;20037;-85
2023/08/13 10:09:32;;;;;;;6.20;3.20;;;;;;;;;;5059167;28;20033;-87
2023/08/13 10:11:59;;;;;;;8.27;3.20;;;;;;;;;;5051121;28;20140;-87
2023/08/13 10:14:25;;;;;;;5.88;3.05;;;;;;;;;;5054502;28;20128;-87
2023/08/13 10:16:50;;;;;;;5.68;3.50;;;;;;;;;;5054534;28;20043;-87
2023/08/13 10:19:17;;;;;;;5.78;3.78;;;;;;;;;;5052996;28;20029;-87
2023/08/13 10:21:47;;;;;;;6.72;4.07;;;;;;;;;;5053848;28;20119;-87
2023/08/13 10:24:12;;;;;;;5.05;3.60;;;;;;;;;;5053215;28;20075;-87
2023/08/13 10:26:45;;;;;;;4.88;3.55;;;;;;;;;;5050565;28;20029;-87
2023/08/13 10:29:21;;;;;;;6.20;3.38;;;;;;;;;;5053936;28;20059;-87
2023/08/13 10:31:59;;;;;;;9.02;3.50;;;;;;;;;;5068179;28;20045;-87
2023/08/13 10:34:50;;;;;;;5.97;3.60;;;;;;;;;;5053699;28;20037;-87
2023/08/13 10:37:29;;;;;;;5.88;3.70;;;;;;;;;;5050713;28;20123;-87
2023/08/13 10:39:55;;;;;;;7.05;3.90;;;;;;;;;;5053740;28;20044;-87
2023/08/13 10:42:26;;;;;;;7.88;3.58;;;;;;;;;;5054070;28;20029;-87
2023/08/13 10:44:53;;;;;;;6.53;3.80;;;;;;;;;;5052685;28;20090;-88
2023/08/13 10:47:18;;;;;;;5.80;3.67;;;;;;;;;;5053067;28;20025;-87
2023/08/13 10:49:44;;;;;;;5.65;3.55;;;;;;;;;;5053518;28;20043;-88
2023/08/13 10:52:13;;;;;;;5.68;3.30;;;;;;;;;;5053244;28;20086;-87
2023/08/13 10:54:39;;;;;;;5.72;3.63;;;;;;;;;;5052362;28;20040;-88
2023/08/13 10:57:05;;;;;;;9.77;3.83;;;;;;;;;;5053486;28;20041;-88
2023/08/13 10:59:39;;;;;;;5.15;3.90;;;;;;;;;;5053290;28;20028;-87
2023/08/13 11:02:15;;;;;;;11.43;3.80;;;;;;;;;;5051938;28;20044;-87
2023/08/13 11:04:43;;;;;;;7.57;3.85;;;;;;;;;;5052912;28;20523;-88
2023/08/13 11:07:13;;;;;;;5.45;3.53;;;;;;;;;;5052978;28;20017;-87
2023/08/13 11:09:39;;;;;;;5.63;3.42;;;;;;;;;;5052681;28;20035;-87
2023/08/13 11:12:07;;;;;;;5.82;3.63;;;;;;;;;;5053166;28;20068;-88
2023/08/13 11:14:33;;;;;;;5.50;3.58;;;;;;;;;;5053096;28;20030;-87
2023/08/13 11:16:59;;;;;;;7.85;3.97;;;;;;;;;;5052253;28;20025;-87
2023/08/13 11:19:25;;;;;;;5.90;3.83;;;;;;;;;;5052509;28;20039;-87
2023/08/13 11:21:51;;;;;;;4.90;3.70;;;;;;;;;;5052349;28;20048;-87
2023/08/13 11:24:16;;;;;;;7.30;3.70;;;;;;;;;;5051016;28;20033;-88
2023/08/13 11:26:42;;;;;;;10.07;3.80;;;;;;;;;;5052999;28;20035;-87
2023/08/13 11:29:07;;;;;;;4.82;3.70;;;;;;;;;;5053163;28;20029;-88
2023/08/13 11:31:33;;;;;;;8.85;3.70;;;;;;;;;;5053649;28;20039;-88
2023/08/13 11:33:59;;;;;;;6.03;3.90;;;;;;;;;;5053893;28;20072;-88
2023/08/13 11:36:25;;;;;;;4.75;3.45;;;;;;;;;;5052439;28;20078;-87
2023/08/13 11:38:51;;;;;;;6.57;3.65;;;;;;;;;;5054113;28;20111;-87
2023/08/13 11:41:16;;;;;;;6.38;3.47;;;;;;;;;;5054222;28;20469;-87
2023/08/13 11:43:42;;;;;;;7.32;3.50;;;;;;;;;;5053840;28;20035;-87
2023/08/13 11:46:08;;;;;;;7.00;3.88;;;;;;;;;;5053581;28;20384;-87
2023/08/13 11:48:37;;;;;;;10.07;3.60;;;;;;;;;;5053881;28;20032;-88
2023/08/13 11:51:22;;;;;;;5.32;3.50;;;;;;;;;;5053771;28;20108;-87
2023/08/13 11:53:48;;;;;;;9.35;3.83;;;;;;;;;;5052351;28;20037;-87
2023/08/13 11:56:15;;;;;;;8.40;3.95;;;;;;;;;;5046358;28;20033;-88
2023/08/13 11:58:42;;;;;;;7.63;3.75;;;;;;;;;;5051950;28;20112;-87
2023/08/13 12:01:10;;;;;;;6.43;3.58;;;;;;;;;;5052557;28;20449;-88
2023/08/13 12:03:37;;;;;;;7.07;3.42;;;;;;;;;;5053446;28;20431;-88
2023/08/13 12:06:04;;;;;;;6.03;3.70;;;;;;;;;;5053316;28;20120;-88
2023/08/13 12:08:30;;;;;;;6.38;3.67;;;;;;;;;;5052059;28;20044;-88
2023/08/13 12:10:57;;;;;;;5.03;3.58;;;;;;;;;;5052391;28;20041;-85
2023/08/13 12:13:27;;;;;;;7.97;3.60;;;;;;;;;;5053578;28;20400;-88
2023/08/13 12:15:53;;;;;;;5.72;3.45;;;;;;;;;;5054579;28;20039;-88
2023/08/13 12:18:19;;;;;;;4.78;3.20;;;;;;;;;;5054662;28;20025;-88
2023/08/13 12:20:44;;;;;;;8.43;3.70;;;;;;;;;;5054821;28;20043;-88
2023/08/13 12:23:10;;;;;;;5.75;3.20;;;;;;;;;;5053392;28;20040;-88
2023/08/13 12:25:36;;;;;;;4.97;3.35;;;;;;;;;;5052293;28;20056;-87
2023/08/13 12:28:01;;;;;;;9.40;3.60;;;;;;;;;;5053592;28;20060;-87
2023/08/13 12:30:27;;;;;;;5.85;3.42;;;;;;;;;;5053583;28;20076;-87
2023/08/13 12:32:53;;;;;;;6.05;3.45;;;;;;;;;;5053648;28;20388;-87
2023/08/13 12:35:18;;;;;;;5.57;3.50;;;;;;;;;;5053070;28;20041;-87
2023/08/13 12:37:44;;;;;;;4.97;3.42;;;;;;;;;;5052608;28;20032;-87
2023/08/13 12:40:10;;;;;;;7.63;3.35;;;;;;;;;;5053187;28;20029;-87
2023/08/13 12:42:36;;;;;;;7.85;3.70;;;;;;;;;;5053200;28;20059;-87
2023/08/13 12:45:04;;;;;;;7.07;3.45;;;;;;;;;;5051807;28;20036;-87
2023/08/13 12:47:30;;;;;;;6.05;3.40;;;;;;;;;;5036817;28;20519;-87
2023/08/13 12:49:55;;;;;;;7.20;3.22;;;;;;;;;;5054036;28;20502;-88
2023/08/13 12:52:21;;;;;;;7.88;3.38;;;;;;;;;;5051156;28;20032;-87
2023/08/13 12:54:47;;;;;;;8.82;3.47;;;;;;;;;;5051276;28;20438;-87
2023/08/13 12:57:12;;;;;;;5.25;3.38;;;;;;;;;;5051280;28;20048;-87
2023/08/13 12:59:38;;;;;;;8.32;3.40;;;;;;;;;;5050151;28;20033;-87
2023/08/13 13:02:03;;;;;;;6.07;3.50;;;;;;;;;;5050902;28;20021;-87
2023/08/13 13:04:29;;;;;;;7.45;3.38;;;;;;;;;;5051436;28;20492;-87
2023/08/13 13:06:54;;;;;;;6.40;3.45;;;;;;;;;;5049877;28;20044;-87
2023/08/13 13:09:20;;;;;;;6.80;3.40;;;;;;;;;;5050003;28;20021;-87
2023/08/13 13:11:46;;;;;;;7.57;3.55;;;;;;;;;;5050925;28;20036;-88
2023/08/13 13:14:11;;;;;;;7.38;3.75;;;;;;;;;;5050815;28;20029;-85
2023/08/13 13:16:37;;;;;;;7.50;3.65;;;;;;;;;;5050537;28;20124;-87
2023/08/13 13:19:02;;;;;;;5.95;3.70;;;;;;;;;;5050648;28;20021;-87
2023/08/13 13:21:28;;;;;;;8.10;3.25;;;;;;;;;;5050493;28;20380;-87
2023/08/13 13:23:53;;;;;;;6.40;3.80;;;;;;;;;;5050484;28;20021;-87
2023/08/13 13:26:19;;;;;;;7.80;3.30;;;;;;;;;;5049215;28;20426;-87
2023/08/13 13:28:44;;;;;;;7.03;3.55;;;;;;;;;;5049323;28;20040;-88
2023/08/13 13:31:09;;;;;;;7.88;3.70;;;;;;;;;;5050831;28;20041;-88
2023/08/13 13:33:35;;;;;;;6.00;3.50;;;;;;;;;;5049086;28;20115;-87
2023/08/13 13:36:01;;;;;;;7.00;3.70;;;;;;;;;;5062840;28;20037;-88
2023/08/13 13:38:26;;;;;;;5.10;3.53;;;;;;;;;;5049019;28;20526;-88
2023/08/13 13:40:52;;;;;;;6.13;3.75;;;;;;;;;;5050409;28;20072;-87
2023/08/13 13:43:18;;;;;;;8.32;3.70;;;;;;;;;;5049806;28;20143;-87
2023/08/13 13:45:43;;;;;;;9.73;3.60;;;;;;;;;;5050857;28;20051;-88
2023/08/13 13:48:09;;;;;;;7.43;3.80;;;;;;;;;;5050780;28;20017;-87
2023/08/13 13:50:35;;;;;;;5.88;3.58;;;;;;;;;;5051593;28;20033;-88
2023/08/13 13:53:00;;;;;;;7.25;3.60;;;;;;;;;;5051134;28;20396;-87
2023/08/13 13:55:26;;;;;;;9.57;4.00;;;;;;;;;;5051446;28;20033;-87
2023/08/13 13:57:51;;;;;;;7.82;3.97;;;;;;;;;;5051483;28;20487;-88
2023/08/13 14:00:17;;;;;;;9.65;4.07;;;;;;;;;;5051306;28;20121;-87
2023/08/13 14:02:42;;;;;;;6.82;4.05;;;;;;;;;;5050347;28;20024;-87
2023/08/13 14:05:08;;;;;;;11.43;4.15;;;;;;;;;;5051376;28;20033;-88
2023/08/13 14:07:35;;;;;;;8.10;4.32;;;;;;;;;;5050998;28;20025;-88
2023/08/13 14:10:02;;;;;;;10.85;4.18;;;;;;;;;;5050862;28;20499;-87
2023/08/13 14:12:31;;;;;;;6.70;4.00;;;;;;;;;;5049626;28;20044;-88
2023/08/13 14:14:57;;;;;;;5.55;3.30;;;;;;;;;;5048680;28;20468;-87
2023/08/13 14:17:23;;;;;;;8.20;3.50;;;;;;;;;;5051333;28;20033;-87
2023/08/13 14:19:48;;;;;;;7.47;3.30;;;;;;;;;;5051871;28;20039;-88
2023/08/13 14:22:14;;;;;;;7.85;3.30;;;;;;;;;;5050754;28;20041;-88
2023/08/13 14:24:39;;;;;;;6.03;3.20;;;;;;;;;;5051062;28;20053;-88
2023/08/13 14:27:05;;;;;;;10.18;3.17;;;;;;;;;;5051501;28;20045;-87
2023/08/13 14:29:31;;;;;;;6.07;3.20;;;;;;;;;;5052087;28;20024;-87
2023/08/13 14:31:56;;;;;;;7.38;3.42;;;;;;;;;;5052102;28;20032;-88
2023/08/13 14:34:22;;;;;;;9.50;3.17;;;;;;;;;;5051562;28;20035;-88
2023/08/13 14:36:48;;;;;;;6.65;3.15;;;;;;;;;;5051447;28;20413;-88
2023/08/13 14:39:14;;;;;;;8.68;3.67;;;;;;;;;;5051968;28;20025;-88